Time;durP1;ratioP1;P1;durP2;ratioP2;P2;SDS_P1;SDS_P2;PMS_P1;PMS_P2;Temp;Humidity;BMP_temperature;BMP_pressure;BME280_temperature;BME280_humidity;BME280_pressure;Samples;Min_cycle;Max_cycle;Signal;HPM_P1;HPM_P2
2024/03/30 00:00:39;;;;;;;;;;;;;;;21.29;40.08;99806.97;5043497;28;19921;-72
2024/03/30 00:03:04;;;;;;;;;;;;;;;21.29;40.31;99806.97;5047119;28;19920;-72
2024/03/30 00:05:29;;;;;;;;;;;;;;;21.29;40.08;99819.41;5040605;28;19982;-72
2024/03/30 00:07:55;;;;;;;;;;;;;;;21.27;40.11;99813.53;5049886;28;19928;-73
2024/03/30 00:10:20;;;;;;;;;;;;;;;21.30;40.01;99805.94;5045083;28;19977;-72
2024/03/30 00:12:48;;;;;;;;;;;;;;;21.28;40.17;99808.00;5039680;28;19920;-72
2024/03/30 00:15:13;;;;;;;;;;;;;;;21.31;39.94;99809.41;5048934;28;19991;-72
2024/03/30 00:17:39;;;;;;;;;;;;;;;21.22;40.35;99815.97;5050950;28;20439;-73
2024/03/30 00:20:05;;;;;;;;;;;;;;;21.26;40.41;99812.72;5045038;28;20614;-73
2024/03/30 00:22:31;;;;;;;;;;;;;;;21.23;40.01;99813.09;5052248;28;19924;-71
2024/03/30 00:24:56;;;;;;;;;;;;;;;21.31;39.94;99826.09;5046669;28;19971;-73
2024/03/30 00:27:21;;;;;;;;;;;;;;;21.18;40.36;99817.41;5047273;28;19952;-72
2024/03/30 00:29:47;;;;;;;;;;;;;;;21.27;40.06;99819.63;5047926;28;20387;-72
2024/03/30 00:32:12;;;;;;;;;;;;;;;21.26;40.22;99814.53;5044610;28;20421;-73
2024/03/30 00:34:38;;;;;;;;;;;;;;;21.27;40.19;99816.16;5041753;28;20023;-72
2024/03/30 00:37:05;;;;;;;;;;;;;;;21.22;40.27;99815.97;5047603;28;20062;-72
2024/03/30 00:39:31;;;;;;;;;;;;;;;21.22;40.19;99819.44;5042143;28;20321;-72
2024/03/30 00:41:56;;;;;;;;;;;;;;;21.22;40.15;99816.78;5044823;28;19932;-72
2024/03/30 00:44:21;;;;;;;;;;;;;;;21.22;40.22;99821.25;5042297;28;20494;-73
2024/03/30 00:46:47;;;;;;;;;;;;;;;21.19;40.04;99813.75;5047775;28;19982;-72
2024/03/30 00:49:12;;;;;;;;;;;;;;;21.19;40.25;99811.09;5045205;28;19917;-72
2024/03/30 00:51:37;;;;;;;;;;;;;;;21.15;40.27;99804.59;5040852;28;19944;-73
2024/03/30 00:54:03;;;;;;;;;;;;;;;21.16;40.23;99804.38;5053235;28;19921;-72
2024/03/30 00:56:30;;;;;;;;;;;;;;;21.20;40.16;99800.31;5047885;28;20534;-72
2024/03/30 00:58:55;;;;;;;;;;;;;;;21.16;40.31;99801.72;5039657;28;20034;-72
2024/03/30 01:01:21;;;;;;;;;;;;;;;21.11;40.06;99805.03;5042283;28;20501;-72
2024/03/30 01:03:46;;;;;;;;;;;;;;;21.15;40.18;99796.66;5047480;28;19924;-73
2024/03/30 01:06:11;;;;;;;;;;;;;;;21.13;40.31;99799.50;5035308;28;19921;-73
2024/03/30 01:08:37;;;;;;;;;;;;;;;21.05;40.29;99805.88;5044597;28;20519;-72
2024/03/30 01:11:04;;;;;;;;;;;;;;;21.09;40.14;99804.44;5043852;28;20285;-72
2024/03/30 01:13:29;;;;;;;;;;;;;;;21.08;40.31;99808.09;5030546;28;20043;-72
2024/03/30 01:15:55;;;;;;;;;;;;;;;21.06;40.33;99801.41;5032725;28;19976;-72
2024/03/30 01:18:20;;;;;;;;;;;;;;;21.07;40.08;99798.53;5053883;28;19925;-72
2024/03/30 01:20:46;;;;;;;;;;;;;;;21.12;40.19;99792.59;5040092;28;19947;-72
2024/03/30 01:23:12;;;;;;;;;;;;;;;21.06;40.07;99796.91;5041634;28;19951;-72
2024/03/30 01:25:37;;;;;;;;;;;;;;;21.07;40.28;99795.88;5043453;28;19928;-72
2024/03/30 01:28:05;;;;;;;;;;;;;;;21.04;40.41;99784.91;5041032;28;19951;-72
2024/03/30 01:30:31;;;;;;;;;;;;;;;21.03;40.35;99789.41;5047438;28;19917;-73
2024/03/30 01:32:56;;;;;;;;;;;;;;;21.05;40.19;99794.47;5057530;28;20588;-72
2024/03/30 01:35:22;;;;;;;;;;;;;;;21.04;40.04;99785.72;5042189;28;19916;-72
2024/03/30 01:37:47;;;;;;;;;;;;;;;21.01;40.21;99791.47;5045901;28;20139;-72
2024/03/30 01:40:13;;;;;;;;;;;;;;;21.01;40.34;99790.66;5047096;28;20550;-73
2024/03/30 01:42:38;;;;;;;;;;;;;;;21.03;40.39;99788.59;5041773;28;20635;-72
2024/03/30 01:45:04;;;;;;;;;;;;;;;20.98;40.23;99791.84;5049670;28;19929;-72
2024/03/30 01:47:30;;;;;;;;;;;;;;;20.98;40.41;99791.03;5048235;28;19986;-72
2024/03/30 01:49:56;;;;;;;;;;;;;;;21.03;40.19;99788.59;5048469;28;20004;-71
2024/03/30 01:52:22;;;;;;;;;;;;;;;20.99;40.42;99782.88;5042481;28;19923;-72
2024/03/30 01:54:49;;;;;;;;;;;;;;;20.98;40.33;99775.97;5043647;28;19948;-74
2024/03/30 01:57:15;;;;;;;;;;;;;;;21.00;40.17;99775.75;5037591;28;20306;-73
2024/03/30 01:59:40;;;;;;;;;;;;;;;21.03;40.09;99778.00;5043618;28;19931;-73
2024/03/30 02:02:09;;;;;;;;;;;;;;;20.94;40.33;99771.31;5042960;28;19948;-72
2024/03/30 02:04:36;;;;;;;;;;;;;;;20.96;40.45;99771.91;5040640;28;19921;-71
2024/03/30 02:07:01;;;;;;;;;;;;;;;20.94;40.38;99766.84;5045918;28;19921;-72
2024/03/30 02:09:27;;;;;;;;;;;;;;;20.92;40.17;99765.44;5041583;28;19916;-73
2024/03/30 02:11:52;;;;;;;;;;;;;;;20.92;40.39;99762.78;5043155;28;20017;-72
2024/03/30 02:14:18;;;;;;;;;;;;;;;20.90;40.19;99759.53;5041669;28;20609;-72
2024/03/30 02:16:43;;;;;;;;;;;;;;;20.97;40.18;99750.53;5038104;28;20459;-72
2024/03/30 02:19:09;;;;;;;;;;;;;;;20.94;40.38;99752.81;5047075;28;19920;-71
2024/03/30 02:21:34;;;;;;;;;;;;;;;20.92;40.40;99750.38;5048073;28;19924;-72
2024/03/30 02:24:00;;;;;;;;;;;;;;;20.93;40.16;99744.03;5040593;28;19935;-72
2024/03/30 02:26:25;;;;;;;;;;;;;;;20.94;40.21;99743.03;5044660;28;20039;-72
2024/03/30 02:28:51;;;;;;;;;;;;;;;20.89;40.23;99737.56;5042634;28;20391;-72
2024/03/30 02:31:17;;;;;;;;;;;;;;;20.81;40.46;99741.25;5046341;28;19921;-72
2024/03/30 02:33:42;;;;;;;;;;;;;;;20.82;40.30;99744.72;5040874;28;19979;-73
2024/03/30 02:36:09;;;;;;;;;;;;;;;20.87;40.32;99747.56;5046824;28;20014;-72
2024/03/30 02:38:34;;;;;;;;;;;;;;;20.86;40.29;99747.78;5050856;28;19924;-72
2024/03/30 02:40:59;;;;;;;;;;;;;;;20.83;40.33;99742.91;5042787;28;20303;-73
2024/03/30 02:43:25;;;;;;;;;;;;;;;20.87;40.29;99744.91;5043735;28;19920;-74
2024/03/30 02:45:50;;;;;;;;;;;;;;;20.87;40.37;99747.56;5039551;28;19936;-72
2024/03/30 02:48:15;;;;;;;;;;;;;;;20.88;40.35;99751.81;5035830;28;19920;-72
2024/03/30 02:50:41;;;;;;;;;;;;;;;20.79;40.44;99753.88;5045475;28;19931;-72
2024/03/30 02:53:06;;;;;;;;;;;;;;;20.84;40.54;99757.75;5044180;28;19920;-72
2024/03/30 02:55:31;;;;;;;;;;;;;;;20.81;40.36;99758.97;5040914;28;19958;-72
2024/03/30 02:57:57;;;;;;;;;;;;;;;20.79;40.49;99761.00;5046978;28;19921;-72
2024/03/30 03:00:22;;;;;;;;;;;;;;;20.86;40.45;99753.88;5025679;28;19921;-73
2024/03/30 03:02:47;;;;;;;;;;;;;;;20.83;40.29;99746.38;5043532;28;19925;-72
2024/03/30 03:05:13;;;;;;;;;;;;;;;20.79;40.36;99761.81;5051020;28;19925;-72
2024/03/30 03:07:38;;;;;;;;;;;;;;;20.80;40.26;99752.88;5040038;28;19921;-72
2024/03/30 03:10:04;;;;;;;;;;;;;;;20.77;40.55;99745.34;5051168;28;19916;-73
2024/03/30 03:12:30;;;;;;;;;;;;;;;20.83;40.17;99749.00;5046526;28;20330;-72
2024/03/30 03:14:56;;;;;;;;;;;;;;;20.73;40.38;99743.34;5039720;28;19974;-72
2024/03/30 03:17:21;;;;;;;;;;;;;;;20.77;40.55;99763.88;5047959;28;19969;-72
2024/03/30 03:19:47;;;;;;;;;;;;;;;20.79;40.30;99766.31;5040511;28;19921;-72
2024/03/30 03:22:12;;;;;;;;;;;;;;;20.80;40.42;99767.94;5050651;28;19920;-71
2024/03/30 03:24:38;;;;;;;;;;;;;;;20.74;40.36;99768.78;5050622;28;19928;-72
2024/03/30 03:27:03;;;;;;;;;;;;;;;20.76;40.34;99774.66;5044411;28;19925;-72
2024/03/30 03:29:29;;;;;;;;;;;;;;;20.75;40.52;99760.63;5044084;28;20031;-71
2024/03/30 03:31:54;;;;;;;;;;;;;;;20.79;40.27;99755.72;5043940;28;20007;-72
2024/03/30 03:34:19;;;;;;;;;;;;;;;20.72;40.46;99745.19;5049898;28;20012;-72
2024/03/30 03:36:45;;;;;;;;;;;;;;;20.77;40.30;99749.84;5045163;28;19955;-72
2024/03/30 03:39:10;;;;;;;;;;;;;;;20.74;40.36;99750.25;5047465;28;19921;-72
2024/03/30 03:41:35;;;;;;;;;;;;;;;20.77;40.27;99745.34;5045730;28;19920;-71
2024/03/30 03:44:01;;;;;;;;;;;;;;;20.70;40.44;99747.25;5051370;28;19925;-73
2024/03/30 03:46:26;;;;;;;;;;;;;;;20.69;40.60;99750.09;5029130;28;19920;-72
2024/03/30 03:48:52;;;;;;;;;;;;;;;20.71;40.45;99745.41;5054278;28;19931;-72
2024/03/30 03:51:17;;;;;;;;;;;;;;;20.69;40.35;99745.63;5048861;28;19924;-71
2024/03/30 03:53:42;;;;;;;;;;;;;;;20.70;40.39;99744.59;5048609;28;19989;-71
2024/03/30 03:56:07;;;;;;;;;;;;;;;20.70;40.36;99747.25;5035945;28;19971;-72
2024/03/30 03:58:33;;;;;;;;;;;;;;;20.70;40.37;99744.59;5039206;28;19921;-72
2024/03/30 04:01:05;;;;;;;;;;;;;;;20.69;40.29;99745.63;5048481;28;19920;-72
2024/03/30 04:03:30;;;;;;;;;;;;;;;20.65;40.52;99756.84;5037025;28;19917;-72
2024/03/30 04:05:56;;;;;;;;;;;;;;;20.70;40.26;99741.94;5041765;28;19960;-71
2024/03/30 04:08:21;;;;;;;;;;;;;;;20.68;40.61;99745.81;5034814;28;19931;-71
2024/03/30 04:10:46;;;;;;;;;;;;;;;20.71;40.29;99742.75;5047417;28;19917;-72
2024/03/30 04:13:11;;;;;;;;;;;;;;;20.66;40.39;99748.69;5043942;28;19916;-72
2024/03/30 04:15:37;;;;;;;;;;;;;;;20.59;40.76;99752.38;5044411;28;19935;-72
2024/03/30 04:18:02;;;;;;;;;;;;;;;20.61;40.47;99756.41;5045217;28;19920;-72
2024/03/30 04:20:28;;;;;;;;;;;;;;;20.55;40.74;99749.34;5044822;28;19963;-71
2024/03/30 04:22:53;;;;;;;;;;;;;;;20.57;40.61;99762.34;5045422;28;19924;-74
2024/03/30 04:25:18;;;;;;;;;;;;;;;20.59;40.58;99760.31;5042914;28;19921;-73
2024/03/30 04:27:44;;;;;;;;;;;;;;;20.58;40.67;99748.09;5044886;28;19924;-72
2024/03/30 04:30:11;;;;;;;;;;;;;;;20.64;40.41;99753.34;5041408;28;19924;-72
2024/03/30 04:32:36;;;;;;;;;;;;;;;20.64;40.41;99755.19;5040786;28;19960;-71
2024/03/30 04:35:03;;;;;;;;;;;;;;;20.63;40.51;99757.00;5042327;28;19975;-72
2024/03/30 04:37:28;;;;;;;;;;;;;;;20.64;40.35;99753.34;5037454;28;19936;-72
2024/03/30 04:39:54;;;;;;;;;;;;;;;20.61;40.36;99751.13;5041092;28;19975;-72
2024/03/30 04:42:19;;;;;;;;;;;;;;;20.58;40.58;99753.38;5042047;28;20356;-72
2024/03/30 04:44:44;;;;;;;;;;;;;;;20.57;40.50;99754.41;5036790;28;19931;-72
2024/03/30 04:47:10;;;;;;;;;;;;;;;20.57;40.48;99751.78;5037717;28;20392;-70
2024/03/30 04:49:35;;;;;;;;;;;;;;;20.59;40.54;99750.53;5040139;28;19920;-71
2024/03/30 04:52:00;;;;;;;;;;;;;;;20.63;40.48;99749.09;5046812;28;20015;-72
2024/03/30 04:54:28;;;;;;;;;;;;;;;20.56;40.48;99752.78;5041712;28;19960;-71
2024/03/30 04:56:53;;;;;;;;;;;;;;;20.58;40.54;99748.91;5044076;28;19917;-72
2024/03/30 04:59:18;;;;;;;;;;;;;;;20.57;40.59;99751.78;5041092;28;19927;-71
2024/03/30 05:01:44;;;;;;;;;;;;;;;20.55;40.58;99753.81;5041398;28;19971;-71
2024/03/30 05:04:09;;;;;;;;;;;;;;;20.58;40.43;99754.19;5042580;28;19924;-73
2024/03/30 05:06:34;;;;;;;;;;;;;;;20.59;40.41;99755.81;5043537;28;19967;-72
2024/03/30 05:09:00;;;;;;;;;;;;;;;20.58;40.52;99748.91;5042790;28;20015;-71
2024/03/30 05:11:25;;;;;;;;;;;;;;;20.57;40.44;99752.56;5042736;28;19916;-72
2024/03/30 05:13:51;;;;;;;;;;;;;;;20.57;40.68;99751.78;5035802;28;19917;-72
2024/03/30 05:16:16;;;;;;;;;;;;;;;20.52;40.75;99744.47;5039752;28;19920;-72
2024/03/30 05:18:41;;;;;;;;;;;;;;;20.45;40.76;99752.41;5044001;28;20031;-72
2024/03/30 05:21:06;;;;;;;;;;;;;;;20.47;40.59;99752.22;5043734;28;19925;-71
2024/03/30 05:23:32;;;;;;;;;;;;;;;20.46;40.66;99747.94;5047340;28;20286;-71
2024/03/30 05:26:02;;;;;;;;;;;;;;;20.52;40.61;99741.81;5038132;28;19921;-73
2024/03/30 05:28:28;;;;;;;;;;;;;;;20.47;40.71;99741.66;5035241;28;19940;-73
2024/03/30 05:30:54;;;;;;;;;;;;;;;20.43;40.90;99743.88;5044951;28;19920;-73
2024/03/30 05:33:20;;;;;;;;;;;;;;;20.42;40.77;99744.09;5037618;28;19923;-74
2024/03/30 05:35:46;;;;;;;;;;;;;;;20.43;40.79;99746.53;5039896;28;19924;-74
2024/03/30 05:38:12;;;;;;;;;;;;;;;20.45;40.82;99744.47;5038645;28;20586;-75
2024/03/30 05:40:37;;;;;;;;;;;;;;;20.48;40.73;99740.63;5045381;28;19977;-73
2024/03/30 05:43:03;;;;;;;;;;;;;;;20.48;40.62;99738.81;5044795;28;20372;-75
2024/03/30 05:45:29;;;;;;;;;;;;;;;20.48;40.57;99738.81;5049799;28;20692;-75
2024/03/30 05:47:54;;;;;;;;;;;;;;;20.50;40.52;99730.66;5039709;28;19932;-74
2024/03/30 05:50:21;;;;;;;;;;;;;;;20.47;40.65;99731.06;5037429;28;19921;-73
2024/03/30 05:52:46;;;;;;;;;;;;;;;20.51;40.54;99733.09;5033023;28;20022;-73
2024/03/30 05:55:11;;;;;;;;;;;;;;;20.55;40.38;99730.81;5032408;28;19951;-73
2024/03/30 05:57:37;;;;;;;;;;;;;;;20.54;40.54;99729.19;5034862;28;20012;-72
2024/03/30 06:00:02;;;;;;;;;;;;;;;20.56;40.52;99737.72;5043970;28;19924;-73
2024/03/30 06:02:38;;;;;;;;;;;;;;;20.51;40.54;99748.13;5036232;28;19931;-73
2024/03/30 06:05:04;;;;;;;;;;;;;;;20.49;40.63;99750.19;5039082;28;20199;-74
2024/03/30 06:07:29;;;;;;;;;;;;;;;20.56;40.54;99756.25;5047220;28;20011;-73
2024/03/30 06:09:55;;;;;;;;;;;;;;;20.51;40.54;99754.25;5038972;28;19931;-74
2024/03/30 06:12:20;;;;;;;;;;;;;;;20.53;40.63;99754.03;5042546;28;19921;-73
2024/03/30 06:14:46;;;;;;;;;;;;;;;20.45;40.69;99756.88;5052957;28;19931;-74
2024/03/30 06:17:11;;;;;;;;;;;;;;;20.53;40.68;99751.38;5037683;28;19920;-74
2024/03/30 06:19:37;;;;;;;;;;;;;;;20.51;40.57;99737.56;5034523;28;19916;-75
2024/03/30 06:22:02;;;;;;;;;;;;;;;20.52;40.71;99740.00;5047910;28;19960;-74
2024/03/30 06:24:28;;;;;;;;;;;;;;;20.56;40.62;99740.38;5043453;28;19971;-74
2024/03/30 06:26:53;;;;;;;;;;;;;;;20.48;40.53;99725.56;5042516;28;20002;-74
2024/03/30 06:29:19;;;;;;;;;;;;;;;20.48;40.74;99727.41;5041202;28;19924;-73
2024/03/30 06:31:44;;;;;;;;;;;;;;;20.47;40.68;99723.16;5043646;28;19931;-74
2024/03/30 06:34:10;;;;;;;;;;;;;;;20.50;40.52;99720.88;5039433;28;20075;-73
2024/03/30 06:36:35;;;;;;;;;;;;;;;20.47;40.66;99713.38;5028900;28;20003;-74
2024/03/30 06:39:01;;;;;;;;;;;;;;;20.47;40.78;99710.72;5041212;28;20409;-74
2024/03/30 06:44:11;;;;;;;;;;;;;;;20.50;40.61;99698.91;5030702;28;19928;-73
2024/03/30 06:46:36;;;;;;;;;;;;;;;20.47;40.66;99702.78;5039463;28;20462;-73
2024/03/30 06:49:02;;;;;;;;;;;;;;;20.48;40.50;99690.38;5044076;28;19952;-73
2024/03/30 06:51:28;;;;;;;;;;;;;;;20.51;40.63;99690.78;5047933;28;19928;-75
2024/03/30 06:53:53;;;;;;;;;;;;;;;20.51;40.56;99682.03;5039450;28;19998;-75
2024/03/30 06:56:18;;;;;;;;;;;;;;;20.50;40.74;99683.84;5043480;28;19932;-75
2024/03/30 06:58:44;;;;;;;;;;;;;;;20.48;40.65;99688.56;5043446;28;19916;-73
2024/03/30 07:01:09;;;;;;;;;;;;;;;20.41;40.75;99687.75;5037108;28;20311;-73
2024/03/30 07:03:35;;;;;;;;;;;;;;;20.50;40.59;99681.22;5039587;28;19956;-74
2024/03/30 07:06:00;;;;;;;;;;;;;;;20.43;40.92;99683.06;5045497;28;20067;-74
2024/03/30 07:08:26;;;;;;;;;;;;;;;20.49;40.87;99676.94;5043479;28;19931;-74
2024/03/30 07:10:51;;;;;;;;;;;;;;;20.47;40.70;99675.53;5043849;28;19959;-73
2024/03/30 07:13:16;;;;;;;;;;;;;;;20.45;40.69;99683.66;5022181;28;19921;-74
2024/03/30 07:15:41;;;;;;;;;;;;;;;20.44;40.87;99692.63;5039913;28;19928;-74
2024/03/30 07:18:07;;;;;;;;;;;;;;;20.50;40.62;99701.56;5039360;28;19959;-73
2024/03/30 07:20:32;;;;;;;;;;;;;;;20.49;40.67;99692.81;5043979;28;19916;-73
2024/03/30 07:22:57;;;;;;;;;;;;;;;20.53;40.42;99701.13;5038943;28;19932;-73
2024/03/30 07:25:23;;;;;;;;;;;;;;;20.50;40.70;99694.44;5041960;28;20353;-74
2024/03/30 07:27:48;;;;;;;;;;;;;;;20.47;40.65;99696.69;5039586;28;19924;-73
2024/03/30 07:30:14;;;;;;;;;;;;;;;20.45;40.62;99686.31;5034247;28;20505;-75
2024/03/30 07:32:39;;;;;;;;;;;;;;;20.46;40.53;99692.41;5048071;28;20438;-73
2024/03/30 07:35:04;;;;;;;;;;;;;;;20.42;40.88;99692.03;5042292;28;19951;-73
2024/03/30 07:37:30;;;;;;;;;;;;;;;20.46;40.92;99695.84;5035308;28;19931;-73
2024/03/30 07:39:55;;;;;;;;;;;;;;;20.50;40.54;99686.50;5039853;28;19925;-73
2024/03/30 07:42:20;;;;;;;;;;;;;;;20.58;40.46;99677.50;5043364;28;19927;-73
2024/03/30 07:44:46;;;;;;;;;;;;;;;20.91;40.08;99684.44;5029166;28;20242;-73
2024/03/30 07:47:11;;;;;;;;;;;;;;;21.13;39.38;99683.03;5041045;28;19959;-73
2024/03/30 07:49:36;;;;;;;;;;;;;;;21.16;39.29;99679.13;5042087;28;19928;-73
2024/03/30 07:52:02;;;;;;;;;;;;;;;21.16;39.33;99676.50;5046222;28;19916;-73
2024/03/30 07:54:27;;;;;;;;;;;;;;;21.12;39.62;99668.19;5039313;28;19921;-73
2024/03/30 07:56:56;;;;;;;;;;;;;;;21.11;39.57;99666.56;5045265;28;19913;-73
2024/03/30 07:59:22;;;;;;;;;;;;;;;21.14;39.67;99663.47;5039064;28;19913;-74
2024/03/30 08:01:48;;;;;;;;;;;;;;;21.09;39.79;99661.47;5038416;28;20261;-74
2024/03/30 08:04:16;;;;;;;;;;;;;;;21.09;39.71;99663.31;5045105;28;19936;-75
2024/03/30 08:06:42;;;;;;;;;;;;;;;21.06;39.99;99663.75;5046100;28;19943;-73
2024/03/30 08:09:08;;;;;;;;;;;;;;;20.95;40.16;99657.31;5043546;28;19920;-74
2024/03/30 08:11:34;;;;;;;;;;;;;;;20.94;40.18;99649.59;5037971;28;20312;-73
2024/03/30 08:13:59;;;;;;;;;;;;;;;20.99;40.17;99653.19;5046747;28;19929;-74
2024/03/30 08:16:24;;;;;;;;;;;;;;;20.97;40.08;99644.66;5043811;28;19951;-74
2024/03/30 08:18:50;;;;;;;;;;;;;;;21.02;39.87;99642.22;5042700;28;19920;-74
2024/03/30 08:21:15;;;;;;;;;;;;;;;20.97;40.01;99646.50;5045369;28;20357;-74
2024/03/30 08:23:40;;;;;;;;;;;;;;;20.95;40.25;99644.09;5039391;28;20333;-74
2024/03/30 08:26:06;;;;;;;;;;;;;;;21.00;40.10;99636.28;5043653;28;20369;-74
2024/03/30 08:28:31;;;;;;;;;;;;;;;20.97;40.21;99634.09;5048448;28;19917;-74
2024/03/30 08:30:56;;;;;;;;;;;;;;;20.97;40.05;99627.97;5041281;28;19944;-73
2024/03/30 08:33:22;;;;;;;;;;;;;;;20.93;40.30;99629.44;5036981;28;19920;-74
2024/03/30 08:35:54;;;;;;;;;;;;;;;20.94;40.24;99623.94;5042358;28;19924;-74
2024/03/30 08:38:20;;;;;;;;;;;;;;;20.95;40.25;99635.34;5043578;28;19921;-74
2024/03/30 08:40:45;;;;;;;;;;;;;;;20.90;40.23;99628.03;5042901;28;20320;-74
2024/03/30 08:43:11;;;;;;;;;;;;;;;20.92;40.26;99622.53;5044455;28;20655;-73
2024/03/30 08:45:36;;;;;;;;;;;;;;;20.94;40.40;99629.22;5028072;28;19992;-73
2024/03/30 08:48:01;;;;;;;;;;;;;;;20.93;41.05;99619.66;5044845;28;19925;-74
2024/03/30 08:50:27;;;;;;;;;;;;;;;20.98;40.53;99617.19;5040637;28;19944;-76
2024/03/30 08:52:52;;;;;;;;;;;;;;;20.92;40.52;99610.13;5023855;28;19931;-75
2024/03/30 08:55:18;;;;;;;;;;;;;;;20.93;40.51;99613.56;5038774;28;19931;-75
2024/03/30 08:57:44;;;;;;;;;;;;;;;20.94;40.60;99608.06;5040324;28;19925;-76
2024/03/30 09:00:09;;;;;;;;;;;;;;;20.94;40.55;99601.97;5041473;28;19930;-75
2024/03/30 09:02:36;;;;;;;;;;;;;;;20.99;40.35;99597.63;5046421;28;19963;-76
2024/03/30 09:05:02;;;;;;;;;;;;;;;20.95;40.54;99593.00;5028709;28;19935;-76
2024/03/30 09:07:27;;;;;;;;;;;;;;;20.95;40.61;99591.16;5039162;28;19917;-76
2024/03/30 09:09:52;;;;;;;;;;;;;;;20.94;40.65;99592.19;5036708;28;19921;-75
2024/03/30 09:12:18;;;;;;;;;;;;;;;20.95;40.42;99588.50;5038733;28;20444;-75
2024/03/30 09:14:43;;;;;;;;;;;;;;;20.99;40.56;99589.69;5044982;28;19916;-74
2024/03/30 09:17:09;;;;;;;;;;;;;;;20.99;40.40;99587.03;5047219;28;20688;-74
2024/03/30 09:19:34;;;;;;;;;;;;;;;20.94;40.60;99596.66;5028446;28;20043;-74
2024/03/30 09:21:59;;;;;;;;;;;;;;;20.94;40.57;99600.13;5042857;28;19925;-76
2024/03/30 09:24:25;;;;;;;;;;;;;;;20.98;40.72;99593.34;5040645;28;19921;-75
2024/03/30 09:26:50;;;;;;;;;;;;;;;20.97;40.45;99588.28;5040568;28;19925;-75
2024/03/30 09:29:15;;;;;;;;;;;;;;;20.88;41.00;99590.41;5039402;28;19921;-79
2024/03/30 09:31:41;;;;;;;;;;;;;;;20.95;40.97;99585.06;5033101;28;19916;-78
2024/03/30 09:34:07;;;;;;;;;;;;;;;20.99;40.78;99571.16;5046007;28;19920;-78
2024/03/30 09:36:32;;;;;;;;;;;;;;;20.97;40.64;99548.59;5046624;28;19950;-78
2024/03/30 09:38:58;;;;;;;;;;;;;;;20.97;40.79;99546.75;5038426;28;19921;-77
2024/03/30 09:41:26;;;;;;;;;;;;;;;20.98;40.79;99529.03;5042560;28;19927;-78
2024/03/30 09:43:52;;;;;;;;;;;;;;;20.98;40.90;99513.97;5052390;28;19989;-77
2024/03/30 09:46:17;;;;;;;;;;;;;;;20.93;40.68;99516.47;5044570;28;19924;-76
2024/03/30 09:48:45;;;;;;;;;;;;;;;20.98;40.81;99521.09;5044109;28;19947;-77
2024/03/30 09:51:11;;;;;;;;;;;;;;;21.01;40.69;99521.50;5045771;28;19920;-76
2024/03/30 09:53:38;;;;;;;;;;;;;;;21.06;40.47;99516.34;5046057;28;19924;-76
2024/03/30 09:56:04;;;;;;;;;;;;;;;21.08;40.65;99521.41;5026165;28;19921;-76
2024/03/30 09:58:30;;;;;;;;;;;;;;;21.13;40.24;99519.72;5042550;28;19962;-76
2024/03/30 10:05:09;;;;;;;;;;;;;;;21.13;40.51;99505.69;5037108;28;20664;-76
2024/03/30 10:08:07;;;;;;;;;;;;;;;21.21;40.34;99489.53;5042290;28;19983;-76
2024/03/30 10:10:33;;;;;;;;;;;;;;;21.15;40.23;99492.22;5043775;28;19917;-76
2024/03/30 10:13:03;;;;;;;;;;;;;;;21.21;40.04;99492.16;5044282;28;19928;-76
2024/03/30 10:15:34;;;;;;;;;;;;;;;21.13;40.29;99501.19;5044297;28;19916;-76
2024/03/30 10:18:00;;;;;;;;;;;;;;;21.15;40.63;99490.38;5039701;28;19920;-76
2024/03/30 10:20:25;;;;;;;;;;;;;;;21.18;40.30;99492.59;5041900;28;20664;-77
2024/03/30 10:22:50;;;;;;;;;;;;;;;21.21;40.21;99486.88;5038541;28;19921;-76
2024/03/30 10:25:17;;;;;;;;;;;;;;;21.12;40.37;99473.09;5047272;28;20296;-77
2024/03/30 10:27:42;;;;;;;;;;;;;;;21.11;40.57;99470.69;5046899;28;20335;-76
2024/03/30 10:30:08;;;;;;;;;;;;;;;21.11;40.36;99476.78;5040909;28;19920;-77
2024/03/30 10:32:36;;;;;;;;;;;;;;;21.09;40.49;99464.81;5048479;28;20327;-76
2024/03/30 10:35:04;;;;;;;;;;;;;;;21.15;40.70;99473.69;5037337;28;19924;-77
2024/03/30 10:37:30;;;;;;;;;;;;;;;21.12;40.56;99480.25;5038068;28;19952;-76
2024/03/30 10:39:55;;;;;;;;;;;;;;;21.05;40.67;99480.31;5044307;28;19960;-77
2024/03/30 10:42:20;;;;;;;;;;;;;;;21.02;40.64;99478.13;5043083;28;19964;-77
2024/03/30 10:44:46;;;;;;;;;;;;;;;21.07;40.42;99464.22;5036912;28;22149;-76
2024/03/30 10:47:11;;;;;;;;;;;;;;;21.03;40.75;99458.56;5044507;28;20383;-77
2024/03/30 10:49:37;;;;;;;;;;;;;;;21.03;40.70;99466.50;5038956;28;19931;-76
2024/03/30 10:52:02;;;;;;;;;;;;;;;21.00;40.79;99469.56;5045140;28;19959;-77
2024/03/30 10:54:28;;;;;;;;;;;;;;;20.99;40.75;99470.59;5042220;28;20388;-77
2024/03/30 10:56:53;;;;;;;;;;;;;;;20.98;40.91;99468.97;5038819;28;19927;-77
2024/03/30 10:59:20;;;;;;;;;;;;;;;21.04;40.68;99484.00;5042377;28;20440;-77
2024/03/30 11:01:47;;;;;;;;;;;;;;;21.01;40.85;99481.78;5040992;28;19916;-77
2024/03/30 11:04:14;;;;;;;;;;;;;;;21.01;40.89;99478.34;5038413;28;20035;-78
2024/03/30 11:06:41;;;;;;;;;;;;;;;21.00;40.96;99487.28;5038938;28;19916;-78
2024/03/30 11:09:07;;;;;;;;;;;;;;;21.02;40.83;99482.59;5043353;28;19920;-77
2024/03/30 11:11:33;;;;;;;;;;;;;;;21.01;40.84;99481.78;5037289;28;20442;-78
2024/03/30 11:13:58;;;;;;;;;;;;;;;21.02;40.83;99477.31;5039750;28;19928;-77
2024/03/30 11:16:26;;;;;;;;;;;;;;;21.03;40.79;99476.28;5037928;28;20053;-77
2024/03/30 11:19:17;;;;;;;;;;;;;;;21.03;40.75;99473.63;5044017;28;20356;-77
2024/03/30 11:21:45;;;;;;;;;;;;;;;20.99;41.02;99481.19;5034972;28;20486;-78
2024/03/30 11:24:13;;;;;;;;;;;;;;;21.01;40.96;99473.84;5041470;28;20429;-78
2024/03/30 11:26:45;;;;;;;;;;;;;;;21.00;40.99;99482.00;5044937;28;19939;-77
2024/03/30 11:29:46;;;;;;;;;;;;;;;20.99;41.01;99480.38;5044784;28;19920;-77
2024/03/30 11:32:13;;;;;;;;;;;;;;;21.04;41.02;99481.34;4993737;28;19949;-77
2024/03/30 11:35:02;;;;;;;;;;;;;;;21.03;40.96;99498.25;5032896;28;20645;-77
2024/03/30 11:37:28;;;;;;;;;;;;;;;21.08;40.96;99482.53;5040768;28;19951;-78
2024/03/30 11:40:12;;;;;;;;;;;;;;;21.03;41.10;99487.69;5041912;28;19928;-77
2024/03/30 11:42:43;;;;;;;;;;;;;;;21.06;40.97;99492.53;5041140;28;19916;-78
2024/03/30 11:45:11;;;;;;;;;;;;;;;21.02;41.18;99499.28;5041592;28;19928;-77
2024/03/30 11:47:39;;;;;;;;;;;;;;;21.03;40.85;99486.88;5046936;28;20254;-77
2024/03/30 11:50:04;;;;;;;;;;;;;;;20.99;40.90;99481.19;5042363;28;19920;-76
2024/03/30 11:52:30;;;;;;;;;;;;;;;21.03;40.98;99473.63;5040635;28;19924;-76
2024/03/30 11:54:55;;;;;;;;;;;;;;;21.06;40.71;99471.34;5042049;28;19921;-76
2024/03/30 11:57:24;;;;;;;;;;;;;;;21.03;40.99;99481.56;5040915;28;19920;-77
2024/03/30 11:59:51;;;;;;;;;;;;;;;20.97;40.96;99487.72;5047324;28;19920;-78
2024/03/30 12:02:16;;;;;;;;;;;;;;;20.98;41.02;99479.56;5044495;28;20300;-78
2024/03/30 12:04:43;;;;;;;;;;;;;;;21.04;41.15;99478.72;5039713;28;19920;-78
2024/03/30 12:07:09;;;;;;;;;;;;;;;21.05;40.86;99466.28;5042379;28;20331;-78
2024/03/30 12:09:35;;;;;;;;;;;;;;;21.09;40.80;99459.50;5045786;28;19916;-78
2024/03/30 12:12:19;;;;;;;;;;;;;;;21.03;40.93;99455.91;5045324;28;19923;-78
2024/03/30 12:14:48;;;;;;;;;;;;;;;21.05;40.98;99450.41;5040282;28;19921;-77
2024/03/30 12:17:13;;;;;;;;;;;;;;;21.06;40.76;99436.94;5045047;28;20478;-77
2024/03/30 12:19:42;;;;;;;;;;;;;;;21.04;40.72;99435.56;5041736;28;19920;-77
2024/03/30 12:22:08;;;;;;;;;;;;;;;21.07;40.68;99440.41;5042632;28;19936;-77
2024/03/30 12:24:33;;;;;;;;;;;;;;;21.02;40.87;99438.41;5039275;28;20241;-77
2024/03/30 12:26:58;;;;;;;;;;;;;;;21.03;40.86;99442.69;5043642;28;19971;-77
2024/03/30 12:29:24;;;;;;;;;;;;;;;21.08;40.77;99436.72;5039520;28;19928;-77
2024/03/30 12:31:49;;;;;;;;;;;;;;;21.03;40.85;99447.97;5031924;28;19921;-78
2024/03/30 12:34:15;;;;;;;;;;;;;;;21.04;41.10;99459.38;5042639;28;19912;-78
2024/03/30 12:36:41;;;;;;;;;;;;;;;21.02;40.89;99461.44;5044380;28;19917;-78
2024/03/30 12:39:08;;;;;;;;;;;;;;;21.05;40.79;99467.09;5040791;28;19930;-78
2024/03/30 12:41:33;;;;;;;;;;;;;;;21.05;40.92;99468.94;5040135;28;20274;-78
2024/03/30 12:43:59;;;;;;;;;;;;;;;21.09;40.90;99473.56;5038770;28;20997;-78
2024/03/30 12:46:24;;;;;;;;;;;;;;;21.00;41.16;99477.50;5042357;28;20066;-78
2024/03/30 12:48:50;;;;;;;;;;;;;;;21.02;41.30;99480.75;5042709;28;20583;-79